createdAt,value
2018-11-12T00:00:08.212Z,29.10
2018-11-12T00:01:39.687Z,29.30
2018-11-12T00:03:11.262Z,35.30
2018-11-12T00:04:42.836Z,32.80
2018-11-12T00:06:14.508Z,32.70
2018-11-12T00:07:45.983Z,32.40
2018-11-12T00:09:17.568Z,39.00
2018-11-12T00:10:49.435Z,34.80
2018-11-12T00:12:20.705Z,32.90
2018-11-12T00:13:52.279Z,31.70
2018-11-12T00:15:23.854Z,31.90
2018-11-12T00:16:55.631Z,28.10
2018-11-12T00:18:27.102Z,29.10
2018-11-12T00:19:58.578Z,33.30
2018-11-12T00:21:30.152Z,28.60
2018-11-12T00:23:01.725Z,29.70
2018-11-12T00:24:33.298Z,34.00
2018-11-12T00:26:04.872Z,33.40
2018-11-12T00:27:36.447Z,30.60
2018-11-12T00:29:08.024Z,28.30
2018-11-12T00:30:39.595Z,32.80
2018-11-12T00:32:11.170Z,31.60
2018-11-12T00:33:42.744Z,28.70
2018-11-12T00:35:14.318Z,32.00
2018-11-12T00:36:45.992Z,27.30
2018-11-12T00:38:17.466Z,30.30
2018-11-12T00:39:49.041Z,31.10
2018-11-12T00:41:20.615Z,32.20
2018-11-12T00:42:52.494Z,33.40
2018-11-12T00:44:23.763Z,32.30
2018-11-12T00:45:55.337Z,32.40
2018-11-12T00:47:26.912Z,31.40
2018-11-12T00:48:58.487Z,28.60
2018-11-12T00:50:30.060Z,33.90
2018-11-12T00:52:01.637Z,31.60
2018-11-12T00:53:33.208Z,37.30
2018-11-12T00:55:04.881Z,31.80
2018-11-12T00:56:36.355Z,34.60
2018-11-12T00:58:07.930Z,34.90
2018-11-12T00:59:39.504Z,32.10
2018-11-12T01:01:11.077Z,35.40
2018-11-12T01:02:42.651Z,34.60
2018-11-12T01:04:14.330Z,35.00
2018-11-12T01:05:45.799Z,29.20
2018-11-12T01:07:17.473Z,32.20
2018-11-12T01:08:48.953Z,33.40
2018-11-12T01:10:20.522Z,32.70
2018-11-12T01:11:52.095Z,35.40
2018-11-12T01:13:23.768Z,34.60
2018-11-12T01:14:55.770Z,33.40
2018-11-12T01:16:26.817Z,28.90
2018-11-12T01:17:58.393Z,35.00
2018-11-12T01:19:30.064Z,36.80
2018-11-12T01:21:01.538Z,33.60
2018-11-12T01:22:33.111Z,33.80
2018-11-12T01:24:04.685Z,35.40
2018-11-12T01:25:36.262Z,41.40
2018-11-12T01:27:07.833Z,41.50
2018-11-12T01:28:39.408Z,39.20
2018-11-12T01:30:10.981Z,41.50
2018-11-12T01:33:14.233Z,40.80
2018-11-12T01:34:45.703Z,39.60
2018-11-12T01:36:17.276Z,39.40
2018-11-12T01:37:48.850Z,39.30
2018-11-12T01:39:20.427Z,37.20
2018-11-12T01:40:51.998Z,33.80
2018-11-12T01:42:23.571Z,33.30
2018-11-12T01:43:55.144Z,31.20
2018-11-12T01:45:26.717Z,32.60
2018-11-12T01:46:58.292Z,30.90
2018-11-12T01:48:29.895Z,34.20
2018-11-12T01:50:01.438Z,30.30
2018-11-12T01:51:33.117Z,33.90
2018-11-12T01:53:04.589Z,27.90
2018-11-12T01:54:36.160Z,32.40
2018-11-12T01:56:07.732Z,40.30
2018-11-12T01:57:39.306Z,37.60
2018-11-12T01:59:10.922Z,42.30
2018-11-12T02:00:42.454Z,46.50
2018-11-12T02:02:14.027Z,44.80
2018-11-12T02:03:46.129Z,48.00
2018-11-12T02:05:17.174Z,42.10
2018-11-12T02:06:48.750Z,41.30
2018-11-12T02:08:20.322Z,40.00
2018-11-12T02:09:52.098Z,45.20
2018-11-12T02:11:23.470Z,36.80
2018-11-12T02:12:55.043Z,35.30
2018-11-12T02:14:26.706Z,35.50
2018-11-12T02:15:58.290Z,45.50
2018-11-12T02:17:29.790Z,40.70
2018-11-12T02:19:01.341Z,44.30
2018-11-12T02:20:32.912Z,49.70
2018-11-12T02:22:04.485Z,53.30
2018-11-12T02:23:36.060Z,55.50
2018-11-12T02:25:07.632Z,56.10
2018-11-12T02:26:39.206Z,49.60
2018-11-12T02:28:10.879Z,57.60
2018-11-12T02:29:42.882Z,56.30
2018-11-12T02:31:13.926Z,51.20
2018-11-12T02:32:45.504Z,60.80
2018-11-12T02:34:17.073Z,58.90
2018-11-12T02:35:48.646Z,58.70
2018-11-12T02:37:20.221Z,70.10
2018-11-12T02:38:52.098Z,59.40
2018-11-12T02:40:23.368Z,63.30
2018-11-12T02:41:54.940Z,68.10
2018-11-12T02:43:26.512Z,74.00
2018-11-12T02:44:58.086Z,64.10
2018-11-12T02:46:29.860Z,58.80
2018-11-12T02:48:01.232Z,64.50
2018-11-12T02:49:32.809Z,70.10
2018-11-12T02:51:04.378Z,70.30
2018-11-12T02:52:35.951Z,68.10
2018-11-12T02:54:07.525Z,68.80
2018-11-12T02:55:39.099Z,63.70
2018-11-12T02:57:10.672Z,68.10
2018-11-12T02:58:42.245Z,65.20
2018-11-12T03:00:13.815Z,62.60
2018-11-12T03:01:45.692Z,60.60
2018-11-12T03:03:16.961Z,65.80
2018-11-12T03:04:48.636Z,63.00
2018-11-12T03:06:20.110Z,59.20
2018-11-12T03:07:51.711Z,62.90
2018-11-12T03:09:23.252Z,69.70
2018-11-12T03:10:54.827Z,64.60
2018-11-12T03:12:26.399Z,74.90
2018-11-12T03:13:57.971Z,77.80
2018-11-12T03:15:29.545Z,76.20
2018-11-12T03:17:01.218Z,76.30
2018-11-12T03:18:32.689Z,81.80
2018-11-12T03:20:04.262Z,66.00
2018-11-12T03:21:35.838Z,78.00
2018-11-12T03:23:07.508Z,65.60
2018-11-12T03:24:38.981Z,73.50
2018-11-12T03:26:10.553Z,70.60
2018-11-12T03:27:42.216Z,75.70
2018-11-12T03:29:13.699Z,84.00
2018-11-12T03:30:45.281Z,79.50
2018-11-12T03:32:16.844Z,85.50
2018-11-12T03:33:48.417Z,89.30
2018-11-12T03:35:19.989Z,89.10
2018-11-12T03:38:23.144Z,81.30
2018-11-12T03:39:54.708Z,107.00
2018-11-12T03:41:26.482Z,82.60
2018-11-12T03:42:57.853Z,86.50
2018-11-12T03:44:29.425Z,72.80
2018-11-12T03:46:00.998Z,89.00
2018-11-12T03:47:32.671Z,79.70
2018-11-12T03:49:04.147Z,88.70
2018-11-12T03:50:35.715Z,127.70
2018-11-12T03:52:07.289Z,116.90
2018-11-12T03:53:38.860Z,117.00
2018-11-12T03:55:10.434Z,82.70
2018-11-12T03:56:42.009Z,131.60
2018-11-12T03:58:13.578Z,109.60
2018-11-12T03:59:45.250Z,93.20
2018-11-12T04:01:16.739Z,82.50
2018-11-12T04:02:48.307Z,83.50
2018-11-12T04:04:19.870Z,108.80
2018-11-12T04:05:51.440Z,101.20
2018-11-12T04:07:23.012Z,95.20
2018-11-12T04:08:54.591Z,141.00
2018-11-12T04:10:26.156Z,160.60
2018-11-12T04:11:57.731Z,120.00
2018-11-12T04:13:29.305Z,125.50
2018-11-12T04:15:00.874Z,148.80
2018-11-12T04:16:32.447Z,136.60
2018-11-12T04:18:04.222Z,162.30
2018-11-12T04:19:35.592Z,160.50
2018-11-12T04:21:07.163Z,161.40
2018-11-12T04:22:38.738Z,144.00
2018-11-12T04:24:10.308Z,123.80
2018-11-12T04:25:41.881Z,170.80
2018-11-12T04:27:13.452Z,133.20
2018-11-12T04:28:45.027Z,157.80
2018-11-12T04:30:16.599Z,143.10
2018-11-12T04:31:48.171Z,128.70
2018-11-12T04:33:19.745Z,114.70
2018-11-12T04:34:51.519Z,124.80
2018-11-12T04:36:22.988Z,137.80
2018-11-12T04:37:54.460Z,124.90
2018-11-12T04:39:26.034Z,140.50
2018-11-12T04:40:57.604Z,132.80
2018-11-12T04:42:29.176Z,106.50
2018-11-12T04:44:00.749Z,119.50
2018-11-12T04:45:32.359Z,107.60
2018-11-12T04:47:03.893Z,110.00
2018-11-12T04:48:35.567Z,122.90
2018-11-12T04:50:07.038Z,127.30
2018-11-12T04:51:38.611Z,116.10
2018-11-12T04:53:10.182Z,111.10
2018-11-12T04:54:41.855Z,112.50
2018-11-12T04:56:13.327Z,117.00
2018-11-12T04:57:44.900Z,123.50
2018-11-12T04:59:16.473Z,100.60
2018-11-12T05:00:48.047Z,130.60
2018-11-12T05:02:19.617Z,115.60
2018-11-12T05:03:51.188Z,124.60
2018-11-12T05:05:22.762Z,115.00
2018-11-12T05:08:25.908Z,117.60
2018-11-12T05:09:57.478Z,112.50
2018-11-12T05:11:29.051Z,102.50
2018-11-12T05:13:00.623Z,106.50
2018-11-12T05:14:32.294Z,116.90
2018-11-12T05:16:03.767Z,111.30
2018-11-12T05:17:35.341Z,119.60
2018-11-12T05:19:06.912Z,120.60
2018-11-12T05:20:38.587Z,129.60
2018-11-12T05:22:10.056Z,118.70
2018-11-12T05:23:41.630Z,119.30
2018-11-12T05:25:13.201Z,136.50
2018-11-12T05:26:44.773Z,125.90
2018-11-12T05:28:16.346Z,123.10
2018-11-12T05:29:47.919Z,127.20
2018-11-12T05:31:19.490Z,112.50
2018-11-12T05:32:51.465Z,114.70
2018-11-12T05:34:22.636Z,117.80
2018-11-12T05:35:54.208Z,116.30
2018-11-12T05:37:25.779Z,104.10
2018-11-12T05:38:57.352Z,113.50
2018-11-12T05:40:28.932Z,88.20
2018-11-12T05:42:00.496Z,106.30
2018-11-12T05:43:32.074Z,122.60
2018-11-12T05:45:03.717Z,118.40
2018-11-12T05:46:35.214Z,112.80
2018-11-12T05:48:06.785Z,101.10
2018-11-12T05:49:38.560Z,99.10
2018-11-12T05:51:10.133Z,111.40
2018-11-12T05:52:41.502Z,112.80
2018-11-12T05:54:13.074Z,120.70
2018-11-12T05:57:16.218Z,122.40
2018-11-12T05:58:47.806Z,114.70
2018-11-12T06:00:19.364Z,107.30
2018-11-12T06:04:54.288Z,111.90
2018-11-12T06:06:25.683Z,108.00
2018-11-12T06:07:57.224Z,105.60
2018-11-12T06:09:28.798Z,105.50
2018-11-12T06:11:00.506Z,111.10
2018-11-12T06:12:32.009Z,95.20
2018-11-12T06:14:03.653Z,93.20
2018-11-12T06:15:35.086Z,87.80
2018-11-12T06:17:06.658Z,104.50
2018-11-12T06:18:38.266Z,93.00
2018-11-12T06:20:09.804Z,98.10
2018-11-12T06:21:41.505Z,111.50
2018-11-12T06:23:13.060Z,110.90
2018-11-12T06:24:44.545Z,101.00
2018-11-12T06:26:16.125Z,99.00
2018-11-12T06:27:47.661Z,105.70
2018-11-12T06:29:19.335Z,106.00
2018-11-12T06:30:50.807Z,104.40
2018-11-12T06:32:22.378Z,107.90
2018-11-12T06:33:53.956Z,110.80
2018-11-12T06:35:25.522Z,114.50
2018-11-12T06:36:57.254Z,137.80
2018-11-12T06:38:28.679Z,121.80
2018-11-12T06:40:00.239Z,125.40
2018-11-12T06:41:31.810Z,125.30
2018-11-12T06:43:03.447Z,145.60
2018-11-12T06:44:34.954Z,134.10
2018-11-12T06:46:06.527Z,114.60
2018-11-12T06:47:38.499Z,121.50
2018-11-12T06:49:10.034Z,129.20
2018-11-12T06:50:41.242Z,132.90
2018-11-12T06:52:12.816Z,131.10
2018-11-12T06:53:44.487Z,119.30
2018-11-12T06:55:15.959Z,128.00
2018-11-12T06:56:47.531Z,132.90
2018-11-12T06:58:19.103Z,126.50
2018-11-12T06:59:50.677Z,140.80
2018-11-12T07:01:22.250Z,135.40
2018-11-12T07:02:54.754Z,128.30
2018-11-12T07:04:25.392Z,132.20
2018-11-12T07:05:57.065Z,129.50
2018-11-12T07:07:28.541Z,131.40
2018-11-12T07:09:00.109Z,133.00
2018-11-12T07:10:31.683Z,131.60
2018-11-12T07:12:03.253Z,128.30
2018-11-12T07:13:34.826Z,132.80
2018-11-12T07:15:06.397Z,143.60
2018-11-12T07:16:37.968Z,146.60
2018-11-12T07:18:09.641Z,141.30
2018-11-12T07:19:41.619Z,130.90
2018-11-12T07:21:12.684Z,135.90
2018-11-12T07:22:44.257Z,153.20
2018-11-12T07:24:16.029Z,154.80
2018-11-12T07:25:47.402Z,147.40
2018-11-12T07:27:18.972Z,142.30
2018-11-12T07:28:50.546Z,143.30
2018-11-12T07:30:22.117Z,142.20
2018-11-12T07:31:53.689Z,142.90
2018-11-12T07:33:25.275Z,143.80
2018-11-12T07:34:56.832Z,154.00
2018-11-12T07:36:28.406Z,142.70
2018-11-12T07:37:59.976Z,135.60
2018-11-12T07:39:31.549Z,150.80
2018-11-12T07:41:03.121Z,138.30
2018-11-12T07:42:34.796Z,120.30
2018-11-12T07:44:06.275Z,138.70
2018-11-12T07:45:37.839Z,124.10
2018-11-12T07:47:09.411Z,131.10
2018-11-12T07:48:40.995Z,142.00
2018-11-12T07:50:12.557Z,138.70
2018-11-12T07:51:44.131Z,139.50
2018-11-12T07:53:15.702Z,129.60
2018-11-12T07:54:47.375Z,131.20
2018-11-12T07:56:18.920Z,137.10
2018-11-12T07:57:50.420Z,127.50
2018-11-12T07:59:21.994Z,148.90
2018-11-12T08:00:53.672Z,142.50
2018-11-12T08:02:25.138Z,136.70
2018-11-12T08:03:56.711Z,125.60
2018-11-12T08:05:28.287Z,122.30
2018-11-12T08:06:59.859Z,125.30
2018-11-12T08:08:31.429Z,121.50
2018-11-12T08:10:03.005Z,126.10
2018-11-12T08:11:34.574Z,123.10
2018-11-12T08:13:06.148Z,109.80
2018-11-12T08:14:37.764Z,105.30
2018-11-12T08:16:09.297Z,106.50
2018-11-12T08:17:40.923Z,96.00
2018-11-12T08:19:12.540Z,100.70
2018-11-12T08:20:44.018Z,89.60
2018-11-12T08:22:15.590Z,84.20
2018-11-12T08:23:47.191Z,94.10
2018-11-12T08:25:18.866Z,86.60
2018-11-12T08:26:50.359Z,87.80
2018-11-12T08:28:21.878Z,82.60
2018-11-12T08:29:53.577Z,63.50
2018-11-12T08:31:25.077Z,79.70
2018-11-12T08:32:56.750Z,75.40
2018-11-12T08:34:28.474Z,74.00
2018-11-12T08:35:59.749Z,72.50
2018-11-12T08:37:31.458Z,59.30
2018-11-12T08:39:03.239Z,67.20
2018-11-12T08:40:34.604Z,64.90
2018-11-12T08:42:06.038Z,59.80
2018-11-12T08:43:37.609Z,54.20
2018-11-12T08:45:09.191Z,58.20
2018-11-12T08:46:40.848Z,58.80
2018-11-12T08:48:12.330Z,60.10
2018-11-12T08:49:45.197Z,58.80
2018-11-12T08:51:15.552Z,59.30
2018-11-12T08:52:47.132Z,60.60
2018-11-12T08:54:18.754Z,50.80
2018-11-12T08:55:50.532Z,47.70
2018-11-12T08:57:21.804Z,48.10
2018-11-12T08:58:53.398Z,43.70
2018-11-12T09:00:24.923Z,44.40
2018-11-12T09:01:56.701Z,50.20
2018-11-12T09:03:28.098Z,41.80
2018-11-12T09:06:31.257Z,37.20
2018-11-12T09:08:02.883Z,47.00
2018-11-12T09:11:05.976Z,42.90
2018-11-12T09:12:38.191Z,38.70
2018-11-12T09:14:09.249Z,41.50
2018-11-12T09:15:40.808Z,33.50
2018-11-12T09:18:43.931Z,39.00
2018-11-12T09:20:15.393Z,32.20
2018-11-12T09:21:47.085Z,36.50
2018-11-12T09:23:18.679Z,32.30
2018-11-12T09:24:50.117Z,31.10
2018-11-12T09:26:22.225Z,31.90
2018-11-12T09:27:53.803Z,28.00
2018-11-12T09:29:24.903Z,29.50
2018-11-12T09:30:57.962Z,26.70
2018-11-12T09:32:28.134Z,26.60
2018-11-12T09:33:59.623Z,27.10
2018-11-12T09:35:31.311Z,28.20
2018-11-12T09:37:02.849Z,25.50
2018-11-12T09:38:34.598Z,26.80
2018-11-12T09:40:05.887Z,27.20
2018-11-12T09:41:38.727Z,25.40
2018-11-12T09:43:09.951Z,27.40
2018-11-12T09:44:40.831Z,26.00
2018-11-12T09:46:12.933Z,25.10
2018-11-12T09:49:15.615Z,25.40
2018-11-12T09:50:47.049Z,23.30
2018-11-12T09:52:18.626Z,25.00
2018-11-12T09:53:50.471Z,26.20
2018-11-12T09:55:21.621Z,24.90
2018-11-12T09:56:53.504Z,20.80
2018-11-12T09:58:24.999Z,20.40
2018-11-12T09:59:56.375Z,24.70
2018-11-12T10:01:29.130Z,21.10
2018-11-12T10:03:00.919Z,18.90
2018-11-12T10:04:32.706Z,23.20
2018-11-12T10:06:04.151Z,23.50
2018-11-12T10:07:35.818Z,18.00
2018-11-12T10:09:08.804Z,16.20
2018-11-12T10:10:39.504Z,16.00
2018-11-12T10:12:12.113Z,15.30
2018-11-12T10:13:43.051Z,20.00
2018-11-12T10:15:14.921Z,15.20
2018-11-12T10:16:47.265Z,17.10
2018-11-12T10:18:15.246Z,16.40
2018-11-12T10:19:48.275Z,14.70
2018-11-12T10:22:50.401Z,16.00
2018-11-12T10:24:22.590Z,15.70
2018-11-12T10:25:53.371Z,16.40
2018-11-12T10:27:24.925Z,15.40
2018-11-12T10:28:56.901Z,16.40
2018-11-12T10:30:28.229Z,14.30
2018-11-12T10:31:59.437Z,16.60
2018-11-12T10:33:31.582Z,16.30
2018-11-12T10:35:03.052Z,14.90
2018-11-12T10:36:34.283Z,15.60
2018-11-12T10:38:06.108Z,15.30
2018-11-12T10:39:37.400Z,13.30
2018-11-12T10:41:10.002Z,16.20
2018-11-12T10:42:41.191Z,18.30
2018-11-12T10:44:13.432Z,16.80
2018-11-12T10:45:45.565Z,14.20
2018-11-12T10:47:15.549Z,14.60
2018-11-12T10:48:46.799Z,14.80
2018-11-12T10:50:19.448Z,14.30
2018-11-12T10:51:50.238Z,12.80
2018-11-12T10:53:21.612Z,12.00
2018-11-12T10:55:04.900Z,12.60
2018-11-12T10:56:25.236Z,11.10
2018-11-12T10:57:56.285Z,12.00
2018-11-12T11:00:59.989Z,12.60
2018-11-12T11:02:31.629Z,12.80
2018-11-12T11:04:03.284Z,12.60
2018-11-12T11:05:34.403Z,12.10
2018-11-12T11:08:37.522Z,11.90
2018-11-12T11:10:09.310Z,13.50
2018-11-12T11:11:40.786Z,12.70
2018-11-12T11:13:12.260Z,13.30
2018-11-12T11:14:44.008Z,12.20
2018-11-12T11:17:47.052Z,13.20
2018-11-12T11:19:18.710Z,13.80
2018-11-12T11:20:50.256Z,13.40
2018-11-12T11:22:21.611Z,14.20
2018-11-12T11:25:24.880Z,11.30
2018-11-12T11:26:56.427Z,12.60
2018-11-12T11:28:28.295Z,11.90
2018-11-12T11:30:00.043Z,11.70
2018-11-12T11:31:31.236Z,12.30
2018-11-12T11:33:03.330Z,14.10
2018-11-12T11:36:06.403Z,13.40
2018-11-12T11:37:38.897Z,11.40
2018-11-12T11:40:40.749Z,14.00
2018-11-12T11:42:13.827Z,11.80
2018-11-12T11:43:44.076Z,12.50
2018-11-12T11:45:16.154Z,12.00
2018-11-12T11:46:48.782Z,12.60
2018-11-12T11:48:18.821Z,11.90
2018-11-12T11:49:50.907Z,10.90
2018-11-12T11:51:21.982Z,11.90
2018-11-12T11:52:54.108Z,12.30
2018-11-12T11:54:25.711Z,11.80
2018-11-12T11:55:57.734Z,11.10
2018-11-12T11:57:30.729Z,11.30
2018-11-12T11:58:59.888Z,11.80
2018-11-12T12:00:31.548Z,11.20
2018-11-12T12:02:02.963Z,11.00
2018-11-12T12:03:34.821Z,10.60
2018-11-12T12:05:06.034Z,11.30
2018-11-12T12:06:37.904Z,11.60
2018-11-12T12:08:09.311Z,11.10
2018-11-12T12:09:41.139Z,12.10
2018-11-12T12:11:12.564Z,10.80
2018-11-12T12:14:15.889Z,10.30
2018-11-12T12:15:47.280Z,10.90
2018-11-12T12:17:19.232Z,10.00
2018-11-12T12:18:50.552Z,10.20
2018-11-12T12:20:21.780Z,10.90
2018-11-12T12:21:53.616Z,11.90
2018-11-12T12:23:25.336Z,10.70
2018-11-12T12:24:56.823Z,10.90
2018-11-12T12:26:28.336Z,10.50
2018-11-12T12:28:00.115Z,10.70
2018-11-12T12:32:35.042Z,10.20
2018-11-12T12:34:06.009Z,10.60
2018-11-12T12:35:37.620Z,9.80
2018-11-12T12:37:09.721Z,11.10
2018-11-12T12:38:41.098Z,10.00
2018-11-12T12:40:12.662Z,9.60
2018-11-12T12:43:15.497Z,9.70
2018-11-12T12:44:47.321Z,10.60
2018-11-12T12:47:50.252Z,10.10
2018-11-12T12:50:53.512Z,10.30
2018-11-12T12:52:25.453Z,9.60
2018-11-12T12:55:28.792Z,8.40
2018-11-12T12:57:00.308Z,8.30
2018-11-12T12:58:31.483Z,8.70
2018-11-12T13:01:34.953Z,8.80
2018-11-12T13:03:06.320Z,8.50
2018-11-12T13:04:38.094Z,8.40
2018-11-12T13:09:12.463Z,8.60
2018-11-12T13:12:15.640Z,9.30
2018-11-12T13:13:47.481Z,8.80
2018-11-12T13:15:19.097Z,9.50
2018-11-12T13:16:50.933Z,10.00
2018-11-12T13:19:53.615Z,9.90
2018-11-12T13:21:25.202Z,10.90
2018-11-12T13:22:56.963Z,9.30
2018-11-12T13:24:28.572Z,9.50
2018-11-12T13:25:59.961Z,9.40
2018-11-12T13:27:31.678Z,8.80
2018-11-12T13:29:03.712Z,11.10
2018-11-12T13:30:35.741Z,9.90
2018-11-12T13:32:07.257Z,10.30
2018-11-12T13:33:38.412Z,11.10
2018-11-12T13:35:11.523Z,10.90
2018-11-12T13:36:41.688Z,9.20
2018-11-12T13:38:13.900Z,9.20
2018-11-12T13:39:45.714Z,8.50
2018-11-12T13:41:16.992Z,8.30
2018-11-12T13:42:47.751Z,9.20
2018-11-12T13:44:21.141Z,10.60
2018-11-12T13:45:50.807Z,9.00
2018-11-12T13:47:22.504Z,8.80
2018-11-12T13:48:55.089Z,8.50
2018-11-12T13:50:25.653Z,8.80
2018-11-12T13:51:58.377Z,9.00
2018-11-12T13:53:29.510Z,9.00
2018-11-12T13:55:02.735Z,9.70
2018-11-12T13:56:32.968Z,8.90
2018-11-12T13:58:04.214Z,8.30
2018-11-12T13:59:35.292Z,7.70
2018-11-12T14:02:38.591Z,8.30
2018-11-12T14:05:41.903Z,9.20
2018-11-12T14:07:12.844Z,8.30
2018-11-12T14:10:16.070Z,9.40
2018-11-12T14:11:47.766Z,8.70
2018-11-12T14:13:19.218Z,8.70
2018-11-12T14:14:51.326Z,7.90
2018-11-12T14:16:22.704Z,8.10
2018-11-12T14:17:54.201Z,8.10
2018-11-12T14:20:57.192Z,8.20
2018-11-12T14:22:28.791Z,7.80
2018-11-12T14:24:00.885Z,8.00
2018-11-12T14:25:31.948Z,9.20
2018-11-12T14:27:03.543Z,8.90
2018-11-12T14:28:35.404Z,9.00
2018-11-12T14:31:39.019Z,7.80
2018-11-12T14:33:09.921Z,8.10
2018-11-12T14:36:13.116Z,9.00
2018-11-12T14:37:45.393Z,8.10
2018-11-12T14:39:16.298Z,7.30
2018-11-12T14:40:47.861Z,8.60
2018-11-12T14:42:19.438Z,8.00
2018-11-12T14:43:51.718Z,7.60
2018-11-12T14:48:26.008Z,7.20
2018-11-12T14:49:57.513Z,7.00
2018-11-12T14:51:28.987Z,6.90
2018-11-12T14:53:00.578Z,6.70
2018-11-12T14:54:32.371Z,6.70
2018-11-12T14:56:03.960Z,8.40
2018-11-12T14:57:35.380Z,8.20
2018-11-12T14:59:06.943Z,8.10
2018-11-12T15:00:38.567Z,8.20
2018-11-12T15:02:10.125Z,8.20
2018-11-12T15:03:42.264Z,7.20
2018-11-12T15:05:14.321Z,8.30
2018-11-12T15:06:44.902Z,9.00
2018-11-12T15:08:16.992Z,11.90
2018-11-12T15:09:48.127Z,12.70
2018-11-12T15:11:20.250Z,12.70
2018-11-12T15:12:51.473Z,12.70
2018-11-12T15:14:23.689Z,11.90
2018-11-12T15:15:54.674Z,12.80
2018-11-12T15:17:26.937Z,13.70
2018-11-12T15:20:30.341Z,14.30
2018-11-12T15:22:02.012Z,14.30
2018-11-12T15:23:32.554Z,13.00
2018-11-12T15:25:04.810Z,14.30
2018-11-12T15:26:36.677Z,12.80
2018-11-12T15:28:07.740Z,14.10
2018-11-12T15:29:39.342Z,14.90
2018-11-12T15:31:10.856Z,18.30
2018-11-12T15:32:42.245Z,22.30
2018-11-12T15:34:13.744Z,20.60
2018-11-12T15:35:45.453Z,20.80
2018-11-12T15:37:18.121Z,23.50
2018-11-12T15:38:48.533Z,22.70
2018-11-12T15:40:20.365Z,23.80
2018-11-12T15:41:52.368Z,24.50
2018-11-12T15:43:23.351Z,25.70
2018-11-12T15:46:26.725Z,28.00
2018-11-12T15:47:58.541Z,28.00
2018-11-12T15:49:29.412Z,26.60
2018-11-12T15:51:01.184Z,26.80
2018-11-12T15:52:33.601Z,26.10
2018-11-12T15:54:04.659Z,22.40
2018-11-12T15:57:08.321Z,19.90
2018-11-12T15:58:38.918Z,17.10
2018-11-12T16:00:10.477Z,17.40
2018-11-12T16:01:42.817Z,18.70
2018-11-12T16:03:13.584Z,18.10
2018-11-12T16:04:45.884Z,17.30
2018-11-12T16:06:16.911Z,19.30
2018-11-12T16:07:48.561Z,17.70
2018-11-12T16:09:20.796Z,17.80
2018-11-12T16:10:51.824Z,18.90
2018-11-12T16:12:23.496Z,19.00
2018-11-12T16:13:54.756Z,17.10
2018-11-12T16:15:26.357Z,18.50
2018-11-12T16:16:57.965Z,17.40
2018-11-12T16:20:01.318Z,16.30
2018-11-12T16:21:32.961Z,16.70
2018-11-12T16:23:04.585Z,15.60
2018-11-12T16:24:35.921Z,17.20
2018-11-12T16:26:07.431Z,15.70
2018-11-12T16:27:39.363Z,14.80
2018-11-12T16:30:42.179Z,15.20
2018-11-12T16:32:14.221Z,13.90
2018-11-12T16:35:17.071Z,16.40
2018-11-12T16:36:49.500Z,17.40
2018-11-12T16:38:20.377Z,15.00
2018-11-12T16:39:52.624Z,19.30
2018-11-12T16:41:23.496Z,17.40
2018-11-12T16:42:55.241Z,16.50
2018-11-12T16:44:26.608Z,17.70
2018-11-12T16:45:58.144Z,18.60
2018-11-12T16:47:29.817Z,20.60
2018-11-12T16:49:01.203Z,18.30
2018-11-12T16:50:33.280Z,22.70
2018-11-12T16:52:04.647Z,20.40
2018-11-12T16:53:36.104Z,21.00
2018-11-12T16:55:07.668Z,23.10
2018-11-12T16:56:39.449Z,23.60
2018-11-12T16:58:13.044Z,24.10
2018-11-12T16:59:42.662Z,21.50
2018-11-12T17:02:45.807Z,20.50
2018-11-12T17:04:17.044Z,20.30
2018-11-12T17:05:48.788Z,20.70
2018-11-12T17:07:20.492Z,20.40
2018-11-12T17:08:52.507Z,21.90
2018-11-12T17:10:24.553Z,18.60
2018-11-12T17:11:55.166Z,20.90
2018-11-12T17:13:26.708Z,21.90
2018-11-12T17:14:58.140Z,18.70
2018-11-12T17:16:29.937Z,20.60
2018-11-12T17:19:33.458Z,22.40
2018-11-12T17:21:05.174Z,22.40
2018-11-12T17:22:36.806Z,22.40
2018-11-12T17:24:08.073Z,21.10
2018-11-12T17:25:39.405Z,19.90
2018-11-12T17:27:10.733Z,19.80
2018-11-12T17:28:42.614Z,22.10
2018-11-12T17:31:45.556Z,21.40
2018-11-12T17:33:18.053Z,19.60
2018-11-12T17:34:48.719Z,27.30
2018-11-12T17:36:20.290Z,21.00
2018-11-12T17:39:24.038Z,19.10
2018-11-12T17:40:55.307Z,21.00
2018-11-12T17:45:31.009Z,19.40
2018-11-12T17:47:01.578Z,20.80
2018-11-12T17:48:33.346Z,19.70
2018-11-12T17:50:04.493Z,20.60
2018-11-12T17:51:36.172Z,18.20
2018-11-12T17:53:07.920Z,18.30
2018-11-12T17:54:40.250Z,16.20
2018-11-12T17:56:11.645Z,18.40
2018-11-12T17:57:42.575Z,19.10
2018-11-12T17:59:14.810Z,18.30
2018-11-12T18:00:45.792Z,19.70
2018-11-12T18:02:17.601Z,18.00
2018-11-12T18:03:48.892Z,19.80
2018-11-12T18:05:20.228Z,18.30
2018-11-12T18:06:52.099Z,19.30
2018-11-12T18:08:24.247Z,16.80
2018-11-12T18:09:55.483Z,17.60
2018-11-12T18:11:27.107Z,16.30
2018-11-12T18:12:58.076Z,19.10
2018-11-12T18:14:29.749Z,18.70
2018-11-12T18:16:01.516Z,15.40
2018-11-12T18:17:35.214Z,14.10
2018-11-12T18:19:04.772Z,20.20
2018-11-12T18:20:36.166Z,17.10
2018-11-12T18:22:07.750Z,18.50
2018-11-12T18:23:39.317Z,18.20
2018-11-12T18:25:10.675Z,15.20
2018-11-12T18:28:13.836Z,15.20
2018-11-12T18:29:45.897Z,17.50
2018-11-12T18:32:48.600Z,15.70
2018-11-12T18:34:20.917Z,14.80
2018-11-12T18:35:52.024Z,13.80
2018-11-12T18:37:23.508Z,14.60
2018-11-12T18:38:55.259Z,14.30
2018-11-12T18:41:58.339Z,14.90
2018-11-12T18:43:29.651Z,15.40
2018-11-12T18:45:01.242Z,15.30
2018-11-12T18:46:32.972Z,14.60
2018-11-12T18:48:04.381Z,13.20
2018-11-12T18:49:36.319Z,14.30
2018-11-12T18:51:07.749Z,14.20
2018-11-12T18:52:39.517Z,13.40
2018-11-12T18:54:11.202Z,12.90
2018-11-12T18:55:42.652Z,15.20
2018-11-12T18:57:14.081Z,14.70
2018-11-12T18:58:45.635Z,14.10
2018-11-12T19:00:17.499Z,16.40
2018-11-12T19:01:48.619Z,14.60
2018-11-12T19:03:20.106Z,16.40
2018-11-12T19:04:52.776Z,17.40
2018-11-12T19:06:23.569Z,18.20
2018-11-12T19:07:55.147Z,16.50
2018-11-12T19:10:58.985Z,15.00
2018-11-12T19:12:30.561Z,14.40
2018-11-12T19:15:33.630Z,15.20
2018-11-12T19:17:04.419Z,13.90
2018-11-12T19:18:35.877Z,17.20
2018-11-12T19:20:07.549Z,14.80
2018-11-12T19:21:39.171Z,17.30
2018-11-12T19:23:12.770Z,14.70
2018-11-12T19:24:42.632Z,13.40
2018-11-12T19:26:14.039Z,12.70
2018-11-12T19:27:45.520Z,13.60
2018-11-12T19:29:17.030Z,16.50
2018-11-12T19:30:49.188Z,13.20
2018-11-12T19:32:20.061Z,12.80
2018-11-12T19:33:51.839Z,13.60
2018-11-12T19:35:23.213Z,16.20
2018-11-12T19:36:54.792Z,15.30
2018-11-12T19:38:26.365Z,14.10
2018-11-12T19:39:58.144Z,15.10
2018-11-12T19:41:29.518Z,16.60
2018-11-12T19:44:32.670Z,14.10
2018-11-12T19:47:35.823Z,14.60
2018-11-12T19:49:07.399Z,14.90
2018-11-12T19:50:39.081Z,15.60
2018-11-12T19:52:11.082Z,16.20
2018-11-12T19:53:42.131Z,15.40
2018-11-12T19:55:13.704Z,13.60
2018-11-12T19:56:45.282Z,13.60
2018-11-12T19:59:48.661Z,15.90
2018-11-12T20:01:20.009Z,15.40
2018-11-12T20:02:51.789Z,17.50
2018-11-12T20:04:23.163Z,17.50
2018-11-12T20:07:26.314Z,15.10
2018-11-12T20:10:29.567Z,18.30
2018-11-12T20:12:01.044Z,17.40
2018-11-12T20:13:32.618Z,20.60
2018-11-12T20:15:04.196Z,21.90
2018-11-12T20:16:35.771Z,21.70
2018-11-12T20:18:07.379Z,23.50
2018-11-12T20:19:38.922Z,25.00
2018-11-12T20:21:10.498Z,24.70
2018-11-12T20:22:42.073Z,26.70
2018-11-12T20:24:13.648Z,26.90
2018-11-12T20:25:45.223Z,27.70
2018-11-12T20:28:48.475Z,31.30
2018-11-12T20:30:19.954Z,34.80
2018-11-12T20:31:51.595Z,34.90
2018-11-12T20:33:23.101Z,39.70
2018-11-12T20:34:54.775Z,40.40
2018-11-12T20:36:26.250Z,39.00
2018-11-12T20:37:57.825Z,37.10
2018-11-12T20:39:29.400Z,34.60
2018-11-12T20:41:00.975Z,32.30
2018-11-12T20:42:32.552Z,38.60
2018-11-12T20:44:04.125Z,39.70
2018-11-12T20:45:35.701Z,37.70
2018-11-12T20:47:07.904Z,37.50
2018-11-12T20:48:38.850Z,36.90
2018-11-12T20:50:10.425Z,37.20
2018-11-12T20:51:41.999Z,36.90
2018-11-12T20:53:13.575Z,40.40
2018-11-12T20:54:45.150Z,41.20
2018-11-12T20:56:17.029Z,46.30
2018-11-12T20:57:48.301Z,36.60
2018-11-12T20:59:19.876Z,38.90
2018-11-12T21:00:51.450Z,42.70
2018-11-12T21:02:23.050Z,41.50
2018-11-12T21:03:54.600Z,41.80
2018-11-12T21:05:26.377Z,39.00